Time;durP1;ratioP1;P1;durP2;ratioP2;P2;SDS_P1;SDS_P2;PMS_P1;PMS_P2;Temp;Humidity;BMP_temperature;BMP_pressure;BME280_temperature;BME280_humidity;BME280_pressure;Samples;Min_cycle;Max_cycle;Signal;HPM_P1;HPM_P2
2021/01/14 00:01:59;;;;;;;3.30;1.07;;;;;;;-0.44;100.00;100747.50;5022516;28;20776;-68
2021/01/14 00:04:25;;;;;;;2.80;1.00;;;;;;;-0.34;100.00;100753.94;5030874;28;20026;-69
2021/01/14 00:06:55;;;;;;;4.67;1.30;;;;;;;-0.34;100.00;100759.97;5027090;28;20029;-70
2021/01/14 00:09:21;;;;;;;5.70;1.20;;;;;;;-0.22;100.00;100763.91;5025360;28;20465;-69
2021/01/14 00:11:46;;;;;;;6.63;1.40;;;;;;;-0.05;100.00;100779.25;5027061;28;20367;-71
2021/01/14 00:14:12;;;;;;;4.37;0.97;;;;;;;0.05;100.00;100780.56;5022479;28;20033;-69
2021/01/14 00:16:37;;;;;;;6.10;1.33;;;;;;;0.16;100.00;100781.03;5028857;28;20036;-69
2021/01/14 00:19:04;;;;;;;6.10;1.20;;;;;;;0.17;100.00;100780.22;5027321;28;20022;-70
2021/01/14 00:21:30;;;;;;;2.80;0.80;;;;;;;0.17;100.00;100786.25;5027262;28;20028;-69
2021/01/14 00:23:55;;;;;;;3.80;1.57;;;;;;;0.08;100.00;100790.09;5028477;28;20620;-70
2021/01/14 00:26:21;;;;;;;4.93;1.27;;;;;;;-0.10;100.00;100790.16;5030559;28;20504;-70
2021/01/14 00:28:46;;;;;;;3.80;1.10;;;;;;;-0.22;100.00;100787.91;5029656;28;20108;-69
2021/01/14 00:31:11;;;;;;;4.83;1.17;;;;;;;-0.20;100.00;100791.41;5027250;28;20717;-69
2021/01/14 00:33:37;;;;;;;6.77;1.10;;;;;;;-0.21;100.00;100792.22;5030409;28;20029;-70
2021/01/14 00:36:02;;;;;;;7.23;1.30;;;;;;;-0.25;100.00;100805.72;5023296;28;20033;-68
2021/01/14 00:38:28;;;;;;;4.60;1.27;;;;;;;-0.34;100.00;100810.47;5024370;28;20033;-69
2021/01/14 00:40:53;;;;;;;3.43;1.20;;;;;;;-0.31;100.00;100810.59;5028580;28;20031;-69
2021/01/14 00:43:19;;;;;;;12.20;1.50;;;;;;;-0.45;100.00;100817.66;5025770;28;20508;-69
2021/01/14 00:45:47;;;;;;;3.87;1.10;;;;;;;-0.55;100.00;100830.88;5029651;28;20108;-68
2021/01/14 00:48:12;;;;;;;5.43;1.30;;;;;;;-0.47;100.00;100833.81;5026968;28;20074;-69
2021/01/14 00:50:38;;;;;;;4.30;1.37;;;;;;;-0.35;100.00;100839.53;5027084;28;20375;-68
2021/01/14 00:53:03;;;;;;;5.37;1.50;;;;;;;-0.26;100.00;100839.94;5026022;28;20034;-70
2021/01/14 00:55:29;;;;;;;3.73;1.47;;;;;;;-0.09;100.00;100851.03;5029641;28;20033;-68
2021/01/14 00:57:54;;;;;;;7.80;1.20;;;;;;;-0.03;100.00;100854.75;5027657;28;20490;-69
2021/01/14 01:00:21;;;;;;;5.43;1.60;;;;;;;-0.02;100.00;100850.47;5027831;28;20037;-69
2021/01/14 01:02:49;;;;;;;5.73;1.40;;;;;;;-0.05;100.00;100866.66;5028269;28;20049;-69
2021/01/14 01:05:16;;;;;;;6.13;1.40;;;;;;;-0.11;100.00;100863.81;5029215;28;20264;-69
2021/01/14 01:07:57;;;;;;;3.50;1.27;;;;;;;-0.14;100.00;100866.22;5026174;28;20272;-69
2021/01/14 01:10:23;;;;;;;9.83;1.47;;;;;;;-0.20;100.00;100868.50;5024326;28;20252;-70
2021/01/14 01:12:52;;;;;;;5.60;1.40;;;;;;;-0.28;100.00;100868.94;5029143;28;20628;-68
2021/01/14 01:15:18;;;;;;;6.23;1.43;;;;;;;-0.37;100.00;100877.09;5024731;28;20299;-71
2021/01/14 01:17:43;;;;;;;3.97;1.10;;;;;;;-0.40;100.00;100879.50;5029437;28;20267;-69
2021/01/14 01:20:09;;;;;;;7.90;1.30;;;;;;;-0.34;100.00;100890.09;5025183;28;20031;-68
2021/01/14 01:22:34;;;;;;;3.27;1.20;;;;;;;-0.26;100.00;100886.19;5026462;28;20026;-68
2021/01/14 01:25:00;;;;;;;2.30;1.17;;;;;;;-0.21;100.00;100892.44;5029062;28;20097;-71
2021/01/14 01:27:26;;;;;;;7.03;1.93;;;;;;;-0.23;100.00;100901.78;5027998;28;20482;-69
2021/01/14 01:29:52;;;;;;;2.97;1.20;;;;;;;-0.25;100.00;100893.09;5027865;28;20025;-70
2021/01/14 01:32:17;;;;;;;6.30;1.50;;;;;;;-0.26;100.00;100899.03;5027711;28;20280;-69
2021/01/14 01:34:42;;;;;;;3.30;1.30;;;;;;;-0.25;100.00;100911.06;5027887;28;20017;-70
2021/01/14 01:37:08;;;;;;;3.17;1.40;;;;;;;-0.17;100.00;100912.31;5025068;28;20025;-71
2021/01/14 01:39:33;;;;;;;3.73;1.20;;;;;;;-0.09;100.00;100907.56;5028498;28;20105;-69
2021/01/14 01:41:59;;;;;;;5.37;1.40;;;;;;;-0.09;100.00;100916.16;5023821;28;20104;-68
2021/01/14 01:44:27;;;;;;;8.77;1.20;;;;;;;-0.07;100.00;100914.53;5020040;28;20036;-70
2021/01/14 01:47:08;;;;;;;4.97;1.37;;;;;;;-0.11;100.00;100925.47;5028673;28;20477;-69
2021/01/14 01:49:38;;;;;;;8.40;2.73;;;;;;;-0.15;100.00;100930.38;5025068;28;20284;-69
2021/01/14 01:52:06;;;;;;;6.13;1.40;;;;;;;-0.09;100.00;100933.25;5025616;28;20322;-69
2021/01/14 01:54:33;;;;;;;7.23;1.30;;;;;;;-0.03;100.00;100942.13;5022755;28;20821;-69
2021/01/14 01:57:01;;;;;;;6.50;1.40;;;;;;;-0.02;100.00;100938.75;5029891;28;20259;-69
2021/01/14 01:59:27;;;;;;;2.80;1.10;;;;;;;-0.04;100.00;100942.06;5026080;28;20272;-71
2021/01/14 02:01:52;;;;;;;2.13;1.10;;;;;;;-0.04;100.00;100940.38;5016892;28;20633;-69
2021/01/14 02:04:17;;;;;;;3.87;1.20;;;;;;;0.04;100.00;100947.56;5025360;28;20030;-70
2021/01/14 02:07:05;;;;;;;5.40;1.00;;;;;;;-0.02;100.00;100937.88;5027114;28;20021;-69
2021/01/14 02:09:32;;;;;;;3.40;1.20;;;;;;;-0.15;100.00;100940.66;5026419;28;20025;-70
2021/01/14 02:12:04;;;;;;;6.53;1.10;;;;;;;-0.28;100.00;100934.06;5026771;28;20632;-68
2021/01/14 02:14:31;;;;;;;8.83;1.60;;;;;;;-0.32;100.00;100942.44;5024962;28;20374;-71
2021/01/14 02:16:57;;;;;;;4.67;1.43;;;;;;;-0.46;100.00;100943.44;5022716;28;20276;-69
2021/01/14 02:19:30;;;;;;;4.50;1.57;;;;;;;-0.63;100.00;100937.44;5023784;28;20281;-69
2021/01/14 02:22:03;;;;;;;4.40;1.40;;;;;;;-0.63;100.00;100946.03;5026904;28;20392;-69
2021/01/14 02:24:39;;;;;;;5.53;1.27;;;;;;;-0.69;100.00;100945.75;5025517;28;20370;-70
2021/01/14 02:27:06;;;;;;;7.30;1.30;;;;;;;-0.64;100.00;100935.69;5028249;28;20267;-68
2021/01/14 02:29:34;;;;;;;5.57;1.40;;;;;;;-0.67;100.00;100941.56;5024047;28;20280;-69
2021/01/14 02:31:59;;;;;;;4.43;1.10;;;;;;;-0.80;100.00;100946.00;5027716;28;20664;-69
2021/01/14 02:34:25;;;;;;;6.27;1.60;;;;;;;-0.90;100.00;100954.91;5026376;28;20291;-71
2021/01/14 02:36:50;;;;;;;2.37;1.00;;;;;;;-0.96;100.00;100952.94;5029294;28;20083;-69
2021/01/14 02:39:16;;;;;;;5.50;1.60;;;;;;;-1.07;100.00;100951.50;5023245;28;20033;-69
2021/01/14 02:41:41;;;;;;;2.50;1.13;;;;;;;-0.98;100.00;100966.44;5026409;28;20114;-69
2021/01/14 02:44:06;;;;;;;5.63;1.50;;;;;;;-0.85;100.00;100966.28;5028057;28;20026;-69
2021/01/14 02:46:32;;;;;;;4.43;2.23;;;;;;;-0.89;100.00;100966.94;5026515;28;20052;-69
2021/01/14 02:49:06;;;;;;;3.43;1.30;;;;;;;-0.80;100.00;100967.41;5023262;28;20064;-71
2021/01/14 02:51:37;;;;;;;5.63;1.50;;;;;;;-0.79;100.00;100969.19;5026061;28;20116;-69
2021/01/14 02:54:04;;;;;;;2.97;1.40;;;;;;;-0.65;100.00;100968.19;5024885;28;20394;-70
2021/01/14 02:56:32;;;;;;;7.43;1.60;;;;;;;-0.51;100.00;100973.13;5024437;28;20710;-70
2021/01/14 02:58:58;;;;;;;4.50;1.90;;;;;;;-0.63;100.00;100988.81;5028721;28;20267;-70
2021/01/14 03:01:23;;;;;;;5.13;2.03;;;;;;;-0.76;100.00;100974.47;5023003;28;20280;-69
2021/01/14 03:03:49;;;;;;;5.93;1.70;;;;;;;-0.74;100.00;100983.13;5027493;28;20022;-68
2021/01/14 03:06:14;;;;;;;5.00;1.50;;;;;;;-0.82;100.00;100984.44;5026583;28;20112;-68
2021/01/14 03:08:39;;;;;;;6.90;1.80;;;;;;;-0.89;100.00;100996.06;5027091;28;20076;-72
2021/01/14 03:11:05;;;;;;;7.17;1.40;;;;;;;-0.88;100.00;100989.22;5020797;28;20057;-72
2021/01/14 03:13:30;;;;;;;6.70;1.50;;;;;;;-0.95;100.00;100993.19;5025898;28;20457;-71
2021/01/14 03:15:55;;;;;;;3.97;1.53;;;;;;;-1.07;100.00;100991.66;5023749;28;20286;-71
2021/01/14 03:18:21;;;;;;;5.17;1.77;;;;;;;-1.04;100.00;101002.06;5021661;28;20030;-71
2021/01/14 03:20:48;;;;;;;4.93;1.80;;;;;;;-1.09;100.00;100999.28;5028244;28;20109;-69
2021/01/14 03:23:14;;;;;;;6.53;1.73;;;;;;;-1.06;100.00;101006.25;5025767;28;20113;-71
2021/01/14 03:25:39;;;;;;;4.60;1.60;;;;;;;-1.09;100.00;101009.53;5022781;28;20826;-69
2021/01/14 03:28:04;;;;;;;4.33;1.67;;;;;;;-1.05;100.00;101010.59;5032074;28;20267;-70
2021/01/14 03:30:30;;;;;;;5.00;1.80;;;;;;;-1.14;100.00;101020.34;5029850;28;20017;-71
2021/01/14 03:32:56;;;;;;;8.00;1.93;;;;;;;-1.11;100.00;101020.50;5026002;28;20485;-69
2021/01/14 03:35:22;;;;;;;9.13;2.07;;;;;;;-1.04;100.00;101018.34;5025769;28;20037;-70
2021/01/14 03:37:47;;;;;;;6.17;1.87;;;;;;;-1.01;100.00;101027.88;5030896;28;20283;-70
2021/01/14 03:40:13;;;;;;;3.23;1.57;;;;;;;-0.94;100.00;101032.56;5027277;28;20032;-69
2021/01/14 03:42:38;;;;;;;4.03;1.37;;;;;;;-0.89;100.00;101033.66;5026939;28;20040;-69
2021/01/14 03:45:05;;;;;;;4.17;1.63;;;;;;;-0.98;100.00;101039.19;5022224;28;20108;-72
2021/01/14 03:47:31;;;;;;;6.37;1.87;;;;;;;-1.06;100.00;101035.34;5031391;28;20392;-68
2021/01/14 03:49:56;;;;;;;11.37;1.70;;;;;;;-1.01;100.00;101043.28;5032273;28;20282;-71
2021/01/14 03:52:22;;;;;;;4.83;1.70;;;;;;;-1.00;100.00;101039.91;5031021;28;20032;-69
2021/01/14 03:54:47;;;;;;;4.97;1.77;;;;;;;-0.97;100.00;101038.41;5029533;28;20549;-70
2021/01/14 03:57:13;;;;;;;8.20;1.90;;;;;;;-0.97;100.00;101045.22;5031660;28;20025;-70
2021/01/14 03:59:39;;;;;;;4.53;1.90;;;;;;;-1.05;100.00;101046.50;5032707;28;20028;-70
2021/01/14 04:02:08;;;;;;;7.17;1.97;;;;;;;-1.07;100.00;101046.44;5025768;28;20310;-71
2021/01/14 04:04:35;;;;;;;7.47;1.97;;;;;;;-1.06;100.00;101047.31;5030133;28;20032;-69
2021/01/14 04:07:00;;;;;;;3.80;1.70;;;;;;;-0.86;100.00;101050.91;5027376;28;20279;-69
2021/01/14 04:09:26;;;;;;;8.63;2.13;;;;;;;-0.87;100.00;101052.59;5028207;28;20687;-69
2021/01/14 04:11:51;;;;;;;6.83;1.60;;;;;;;-0.80;100.00;101054.69;5027927;28;20045;-69
2021/01/14 04:14:20;;;;;;;4.67;1.87;;;;;;;-0.84;100.00;101051.91;5030058;28;20034;-71
2021/01/14 04:16:48;;;;;;;4.33;1.60;;;;;;;-0.91;100.00;101050.69;5025268;28;20026;-70
2021/01/14 04:19:13;;;;;;;7.23;1.90;;;;;;;-0.98;100.00;101058.84;5026471;28;20677;-70
2021/01/14 04:21:39;;;;;;;7.13;1.73;;;;;;;-0.91;100.00;101058.38;5024877;28;20276;-70
2021/01/14 04:24:05;;;;;;;5.73;1.93;;;;;;;-0.83;100.00;101059.69;5028524;28;20022;-70
2021/01/14 04:26:30;;;;;;;6.53;2.23;;;;;;;-0.78;100.00;101065.03;5029780;28;20111;-69
2021/01/14 04:28:55;;;;;;;5.10;2.00;;;;;;;-0.77;100.00;101071.94;5024138;28;20052;-71
2021/01/14 04:31:21;;;;;;;7.47;2.00;;;;;;;-0.78;100.00;101073.63;5028063;28;20036;-71
2021/01/14 04:33:46;;;;;;;7.70;2.33;;;;;;;-0.83;100.00;101069.06;5024390;28;20120;-69
2021/01/14 04:36:15;;;;;;;6.20;1.67;;;;;;;-0.81;100.00;101073.47;5028062;28;20112;-72
2021/01/14 04:38:41;;;;;;;7.53;2.00;;;;;;;-0.72;100.00;101073.97;5028138;28;20029;-69
2021/01/14 04:41:06;;;;;;;5.70;1.80;;;;;;;-0.63;100.00;101074.41;5026579;28;20281;-71
2021/01/14 04:43:33;;;;;;;4.40;1.90;;;;;;;-0.50;100.00;101086.22;5027967;28;20013;-70
2021/01/14 04:46:09;;;;;;;4.87;2.20;;;;;;;-0.44;100.00;101090.81;5029368;28;20045;-70
2021/01/14 04:48:38;;;;;;;6.67;2.10;;;;;;;-0.43;100.00;101092.56;5028889;28;20360;-70
2021/01/14 04:51:07;;;;;;;6.93;1.97;;;;;;;-0.44;100.00;101096.81;5024429;28;20616;-71
2021/01/14 04:53:38;;;;;;;6.63;1.67;;;;;;;-0.39;100.00;101095.38;5020418;28;20284;-71
2021/01/14 04:56:06;;;;;;;8.87;2.07;;;;;;;-0.36;100.00;101099.81;5027381;28;20264;-69
2021/01/14 04:58:33;;;;;;;7.13;2.63;;;;;;;-0.32;100.00;101097.44;5025275;28;20318;-71
2021/01/14 05:00:59;;;;;;;7.27;2.20;;;;;;;-0.35;100.00;101092.16;5029031;28;20284;-71
2021/01/14 05:03:27;;;;;;;4.37;2.00;;;;;;;-0.30;100.00;101094.97;5029035;28;20264;-69
2021/01/14 05:05:53;;;;;;;7.47;2.67;;;;;;;-0.33;100.00;101110.22;5025035;28;20033;-70
2021/01/14 05:08:28;;;;;;;4.47;1.90;;;;;;;-0.27;100.00;101102.81;5022824;28;20288;-72
2021/01/14 05:10:55;;;;;;;5.30;1.83;;;;;;;-0.23;100.00;101104.75;5023412;28;20355;-71
2021/01/14 05:13:20;;;;;;;5.90;2.00;;;;;;;-0.21;100.00;101105.72;5026635;28;20689;-70
2021/01/14 05:15:46;;;;;;;5.33;1.70;;;;;;;-0.20;100.00;101110.03;5025046;28;20341;-69
2021/01/14 05:18:12;;;;;;;5.33;2.10;;;;;;;-0.17;100.00;101102.50;5025843;28;20033;-70
2021/01/14 05:20:37;;;;;;;6.23;2.03;;;;;;;-0.16;100.00;101114.53;5025310;28;20167;-70
2021/01/14 05:23:04;;;;;;;10.30;2.73;;;;;;;-0.15;100.00;101118.84;5026756;28;20025;-70
2021/01/14 05:25:31;;;;;;;6.80;2.40;;;;;;;-0.13;100.00;101114.69;5025050;28;20037;-70
2021/01/14 05:28:09;;;;;;;8.60;2.23;;;;;;;-0.10;100.00;101125.13;5026950;28;20283;-70
2021/01/14 05:30:35;;;;;;;5.17;2.10;;;;;;;-0.10;100.00;101125.13;5020498;28;20632;-70
2021/01/14 05:33:00;;;;;;;4.93;2.20;;;;;;;-0.11;100.00;101133.66;5026564;28;20288;-70
2021/01/14 05:35:28;;;;;;;7.97;1.80;;;;;;;-0.08;100.00;101128.66;5029701;28;20029;-70
2021/01/14 05:38:03;;;;;;;4.67;2.33;;;;;;;-0.05;100.00;101128.81;5025233;28;20056;-69
2021/01/14 05:40:30;;;;;;;7.37;2.40;;;;;;;-0.05;100.00;101127.94;5025998;28;20276;-70
2021/01/14 05:43:04;;;;;;;5.47;2.30;;;;;;;-0.06;100.00;101137.34;5028489;28;20410;-70
2021/01/14 05:45:30;;;;;;;6.03;2.13;;;;;;;-0.06;100.00;101123.59;5027347;28;20348;-69
2021/01/14 05:48:10;;;;;;;8.87;2.53;;;;;;;-0.05;100.00;101128.81;5024809;28;20284;-70
2021/01/14 05:50:45;;;;;;;11.47;2.30;;;;;;;-0.05;100.00;101128.81;5026214;28;20360;-70
2021/01/14 05:53:18;;;;;;;11.20;2.60;;;;;;;0.01;100.00;101137.66;5019371;28;20326;-71
2021/01/14 05:55:51;;;;;;;6.17;2.43;;;;;;;-0.01;100.00;101146.16;5026563;28;20763;-69
2021/01/14 05:58:20;;;;;;;7.53;2.40;;;;;;;0.01;100.00;101148.81;5030892;28;20383;-70
2021/01/14 06:00:47;;;;;;;7.37;2.67;;;;;;;0.03;100.00;101146.31;5028276;28;20275;-70
2021/01/14 06:03:27;;;;;;;7.53;2.60;;;;;;;0.02;100.00;101148.00;5023431;28;20372;-70
2021/01/14 06:05:54;;;;;;;8.17;2.53;;;;;;;0.02;100.00;101157.41;5017432;28;20332;-71
2021/01/14 06:08:24;;;;;;;8.63;2.50;;;;;;;0.02;100.00;101154.84;5010735;28;20276;-71
2021/01/14 06:10:51;;;;;;;8.70;2.87;;;;;;;0.04;100.00;101159.25;5031838;28;20299;-70
2021/01/14 06:13:17;;;;;;;6.53;2.33;;;;;;;0.06;100.00;101173.06;5039405;28;20766;-69
2021/01/14 06:15:42;;;;;;;10.60;3.00;;;;;;;0.03;100.00;101167.78;5020720;28;20276;-69
2021/01/14 06:18:10;;;;;;;11.97;3.50;;;;;;;0.03;100.00;101172.03;5014218;28;20301;-70
2021/01/14 06:20:50;;;;;;;9.10;2.80;;;;;;;0.06;100.00;101167.03;5028850;28;20508;-70
2021/01/14 06:23:18;;;;;;;7.23;2.60;;;;;;;0.06;100.00;101175.63;5029993;28;20268;-71
2021/01/14 06:25:48;;;;;;;7.23;2.40;;;;;;;0.08;100.00;101186.00;5046113;28;20694;-70
2021/01/14 06:28:14;;;;;;;7.83;2.70;;;;;;;0.11;100.00;101175.84;5027729;28;20281;-70
2021/01/14 06:31:01;;;;;;;9.20;2.90;;;;;;;0.11;100.00;101186.13;5030048;28;20276;-70
2021/01/14 06:33:28;;;;;;;7.23;2.90;;;;;;;0.11;100.00;101196.44;5016070;28;20380;-70
2021/01/14 06:36:06;;;;;;;8.50;2.90;;;;;;;0.11;100.00;101201.56;5011952;28;20284;-71
2021/01/14 06:38:46;;;;;;;7.80;2.50;;;;;;;0.13;100.00;101205.13;5020963;28;20375;-71
2021/01/14 06:41:19;;;;;;;6.03;2.50;;;;;;;0.14;100.00;101206.88;5049561;28;20274;-69
2021/01/14 06:43:47;;;;;;;8.93;3.13;;;;;;;0.16;100.00;101213.00;5010046;28;20273;-70
2021/01/14 06:46:21;;;;;;;10.43;3.37;;;;;;;0.16;100.00;101205.28;5033099;28;20337;-71
2021/01/14 06:49:04;;;;;;;12.30;3.43;;;;;;;0.21;100.00;101225.25;5014691;28;20736;-69
2021/01/14 06:52:03;;;;;;;9.05;2.88;;;;;;;0.23;100.00;101222.75;5024831;28;20292;-68
2021/01/14 06:54:37;;;;;;;14.77;2.90;;;;;;;0.24;100.00;101220.31;5028232;28;20032;-69
2021/01/14 06:57:16;;;;;;;11.80;3.00;;;;;;;0.27;100.00;101229.84;5012852;28;20272;-69
2021/01/14 06:59:42;;;;;;;9.17;3.40;;;;;;;0.28;100.00;101231.63;5032056;28;20334;-69
2021/01/14 07:02:07;;;;;;;12.77;3.43;;;;;;;0.27;100.00;101229.84;5014372;28;20276;-69
2021/01/14 07:04:44;;;;;;;7.70;3.47;;;;;;;0.28;100.00;101232.50;5038915;28;20275;-69
2021/01/14 07:07:25;;;;;;;7.17;3.27;;;;;;;0.29;100.00;101243.66;5029297;28;20033;-72
2021/01/14 07:10:07;;;;;;;12.30;3.00;;;;;;;0.32;100.00;101248.97;5022419;28;20295;-69
2021/01/14 07:12:41;;;;;;;10.17;3.80;;;;;;;0.38;100.00;101258.69;5026838;28;20283;-70
2021/01/14 07:15:17;;;;;;;12.80;3.73;;;;;;;0.39;100.00;101260.47;5052970;28;20739;-70
2021/01/14 07:17:44;;;;;;;11.33;4.00;;;;;;;0.40;100.00;101269.94;5042649;28;20314;-71
2021/01/14 07:20:14;;;;;;;11.10;3.83;;;;;;;0.42;100.00;101258.94;5032646;28;20358;-70
2021/01/14 07:22:47;;;;;;;10.37;3.63;;;;;;;0.40;100.00;101267.38;5027137;28;20363;-68
2021/01/14 07:25:14;;;;;;;10.30;3.37;;;;;;;0.36;100.00;101266.31;5031967;28;20307;-69
2021/01/14 07:27:42;;;;;;;11.87;3.83;;;;;;;0.38;100.00;101275.03;5023119;28;20345;-68
2021/01/14 07:30:08;;;;;;;10.33;3.57;;;;;;;0.39;100.00;101276.78;5026963;28;20312;-70
2021/01/14 07:32:51;;;;;;;9.73;3.83;;;;;;;0.44;100.00;101285.59;5019713;28;20272;-68
2021/01/14 07:35:42;;;;;;;11.45;3.53;;;;;;;0.41;100.00;101290.59;5021613;28;20291;-70
2021/01/14 07:38:13;;;;;;;12.87;3.93;;;;;;;0.40;100.00;101291.41;5015886;28;20489;-70
2021/01/14 07:40:41;;;;;;;7.77;3.20;;;;;;;0.42;100.00;101287.22;5042529;28;20693;-69
2021/01/14 07:43:11;;;;;;;9.50;3.40;;;;;;;0.42;100.00;101301.78;5031181;28;20772;-71
2021/01/14 07:45:37;;;;;;;11.93;3.60;;;;;;;0.44;100.00;101300.16;5035577;28;20346;-69
2021/01/14 07:48:16;;;;;;;10.50;3.60;;;;;;;0.47;100.00;101301.19;5030050;28;20717;-70
2021/01/14 07:50:55;;;;;;;11.13;3.73;;;;;;;0.46;100.00;101304.56;5044498;28;20052;-70
2021/01/14 07:53:22;;;;;;;9.33;3.37;;;;;;;0.49;100.00;101315.03;5020034;28;20281;-69
2021/01/14 07:55:47;;;;;;;9.47;3.23;;;;;;;0.51;100.00;101326.28;5018468;28;20295;-70
2021/01/14 07:58:13;;;;;;;9.57;3.27;;;;;;;0.55;100.00;101320.50;5013982;28;20767;-70
2021/01/14 08:00:41;;;;;;;7.90;3.40;;;;;;;0.56;100.00;101317.09;5026427;28;20029;-69
2021/01/14 08:03:14;;;;;;;10.37;4.03;;;;;;;0.55;100.00;101317.91;5026432;28;20029;-69
2021/01/14 08:05:59;;;;;;;8.53;3.10;;;;;;;0.54;100.00;101323.88;5012834;28;20726;-69
2021/01/14 08:08:37;;;;;;;9.77;3.93;;;;;;;0.57;100.00;101329.16;5021153;28;20748;-70
2021/01/14 08:11:13;;;;;;;7.33;3.53;;;;;;;0.59;100.00;101332.69;5041272;28;20337;-68
2021/01/14 08:14:20;;;;;;;10.77;3.37;;;;;;;0.57;100.00;101334.31;5026642;28;20280;-71
2021/01/14 08:17:19;;;;;;;10.03;3.73;;;;;;;0.61;100.00;101342.19;5031443;28;20256;-70
2021/01/14 08:19:45;;;;;;;15.93;3.60;;;;;;;0.64;100.00;101344.94;5021527;28;20771;-69
2021/01/14 08:22:13;;;;;;;8.97;3.50;;;;;;;0.61;100.00;101334.47;5012906;28;20316;-70
2021/01/14 08:24:44;;;;;;;12.73;3.40;;;;;;;0.66;100.00;101349.34;5031005;28;20025;-69
2021/01/14 08:27:24;;;;;;;12.80;3.60;;;;;;;0.66;100.00;101348.47;5022211;28;20322;-69
2021/01/14 08:29:58;;;;;;;9.83;3.00;;;;;;;0.66;100.00;101343.31;5038393;28;20282;-70
2021/01/14 08:32:47;;;;;;;10.20;3.83;;;;;;;0.68;100.00;101346.84;5024932;28;20279;-69
2021/01/14 08:35:15;;;;;;;10.53;3.90;;;;;;;0.71;100.00;101354.72;5036767;28;20292;-70
2021/01/14 08:37:45;;;;;;;11.60;4.23;;;;;;;0.75;100.00;101354.97;5027540;28;20282;-69
2021/01/14 08:40:13;;;;;;;8.27;3.73;;;;;;;0.76;100.00;101366.16;5021218;28;20644;-71
2021/01/14 08:42:41;;;;;;;8.83;3.70;;;;;;;0.77;100.00;101373.06;5026813;28;20273;-69
2021/01/14 08:45:15;;;;;;;9.97;3.63;;;;;;;0.79;100.00;101376.59;5022884;28;20735;-69
2021/01/14 08:48:02;;;;;;;12.27;3.70;;;;;;;0.80;100.00;101379.25;5011948;28;20343;-69
2021/01/14 08:50:41;;;;;;;11.20;3.60;;;;;;;0.83;100.00;101383.66;5022951;28;20827;-70
2021/01/14 08:53:09;;;;;;;12.10;3.57;;;;;;;0.82;100.00;101387.94;5032109;28;20291;-69
2021/01/14 08:55:35;;;;;;;10.63;3.40;;;;;;;0.88;100.00;101392.53;5025593;28;20340;-70
2021/01/14 08:58:03;;;;;;;11.53;4.00;;;;;;;0.94;100.00;101395.41;5024383;28;20280;-69
2021/01/14 09:00:31;;;;;;;18.80;4.40;;;;;;;0.97;100.00;101389.53;5022482;28;20476;-69
2021/01/14 09:02:56;;;;;;;11.13;3.90;;;;;;;1.04;100.00;101383.91;5019521;28;20280;-69
2021/01/14 09:05:22;;;;;;;10.07;3.37;;;;;;;1.08;100.00;101388.38;5024903;28;20272;-70
2021/01/14 09:08:04;;;;;;;8.23;3.60;;;;;;;1.22;100.00;101386.53;5027524;28;20085;-69
2021/01/14 09:10:45;;;;;;;12.32;3.17;;;;;;;1.31;100.00;101385.28;5023283;28;20022;-70
2021/01/14 09:13:12;;;;;;;11.00;3.50;;;;;;;1.44;100.00;101386.75;5022687;28;20052;-71
2021/01/14 09:15:37;;;;;;;8.57;3.53;;;;;;;1.50;100.00;101387.06;5015688;28;20779;-69
2021/01/14 09:18:03;;;;;;;11.07;3.67;;;;;;;1.58;100.00;101385.78;5021456;28;20272;-69
2021/01/14 09:20:29;;;;;;;10.70;3.73;;;;;;;1.65;100.00;101392.09;5024726;28;20497;-69
2021/01/14 09:22:58;;;;;;;11.33;3.37;;;;;;;1.70;100.00;101399.25;5038564;28;20336;-69
2021/01/14 09:25:35;;;;;;;11.57;4.07;;;;;;;1.74;100.00;101402.84;5035248;28;20029;-69
2021/01/14 09:28:07;;;;;;;10.97;3.57;;;;;;;1.76;100.00;101407.25;5018636;28;20324;-68
2021/01/14 09:30:32;;;;;;;9.67;3.30;;;;;;;1.75;100.00;101410.66;5032014;28;20389;-69
2021/01/14 09:32:58;;;;;;;8.27;3.50;;;;;;;1.81;100.00;101415.22;5022532;28;20971;-69
2021/01/14 09:35:25;;;;;;;8.00;2.90;;;;;;;1.83;100.00;101420.47;5011158;28;20048;-69
2021/01/14 09:37:53;;;;;;;9.30;3.40;;;;;;;1.82;100.00;101426.41;5019326;28;20773;-71
2021/01/14 09:40:19;;;;;;;12.17;3.27;;;;;;;1.84;100.00;101429.97;5025149;28;20782;-69
2021/01/14 09:42:48;;;;;;;8.43;3.33;;;;;;;1.81;100.00;101434.94;5016914;28;20277;-71
2021/01/14 09:45:16;;;;;;;10.27;2.77;;;;;;;1.74;100.00;101429.50;5020626;28;20372;-69
2021/01/14 09:47:46;;;;;;;11.07;3.67;;;;;;;1.75;100.00;101430.41;5029381;28;20311;-70
2021/01/14 09:50:12;;;;;;;10.57;3.20;;;;;;;1.72;100.00;101433.72;5031248;28;20280;-69
2021/01/14 09:52:38;;;;;;;10.20;3.07;;;;;;;1.83;100.00;101438.50;5021549;28;20315;-68
2021/01/14 09:55:07;;;;;;;6.93;2.90;;;;;;;1.82;100.00;101444.44;5024030;28;20316;-68
2021/01/14 09:57:34;;;;;;;9.60;3.33;;;;;;;1.79;100.00;101442.63;5026014;28;20029;-69
2021/01/14 10:00:02;;;;;;;8.50;2.90;;;;;;;1.75;100.00;101441.59;5030177;28;20303;-68
2021/01/14 10:02:31;;;;;;;9.23;3.40;;;;;;;1.76;100.00;101432.16;5027028;28;20418;-68
2021/01/14 10:05:05;;;;;;;7.87;2.87;;;;;;;1.75;100.00;101436.44;5015538;28;20278;-68
2021/01/14 10:07:35;;;;;;;9.20;3.40;;;;;;;1.75;100.00;101439.00;5028271;28;20304;-68
2021/01/14 10:10:01;;;;;;;9.33;3.07;;;;;;;1.77;100.00;101439.09;5039747;28;20275;-68
2021/01/14 10:12:32;;;;;;;10.60;3.93;;;;;;;1.73;100.00;101440.63;5039547;28;20284;-68
2021/01/14 10:15:14;;;;;;;10.13;3.30;;;;;;;1.72;100.00;101436.28;5038323;28;20036;-69
2021/01/14 10:17:41;;;;;;;7.53;3.08;;;;;;;1.84;100.00;101446.31;5023503;28;20686;-69
2021/01/14 10:20:14;;;;;;;9.73;3.47;;;;;;;1.90;100.00;101443.13;5045310;28;20033;-69
2021/01/14 10:22:49;;;;;;;10.17;3.57;;;;;;;2.03;100.00;101454.13;5042847;28;20294;-68
2021/01/14 10:25:15;;;;;;;7.03;2.97;;;;;;;2.04;100.00;101455.00;5037273;28;20784;-69
2021/01/14 10:27:41;;;;;;;11.00;3.33;;;;;;;2.11;100.00;101451.91;5045792;28;20271;-68
2021/01/14 10:30:17;;;;;;;8.90;3.40;;;;;;;2.18;100.00;101453.06;5030276;28;20329;-69
2021/01/14 10:32:43;;;;;;;7.63;3.30;;;;;;;2.25;100.00;101448.28;5029906;28;20044;-68
2021/01/14 10:35:24;;;;;;;9.07;3.23;;;;;;;2.32;100.00;101447.78;5024727;28;20663;-68
2021/01/14 10:38:01;;;;;;;7.63;3.30;;;;;;;2.39;100.00;101453.19;5048584;28;20294;-70
2021/01/14 10:40:41;;;;;;;8.53;3.30;;;;;;;2.39;100.00;101458.38;5043008;28;20291;-68
2021/01/14 10:43:11;;;;;;;9.70;3.40;;;;;;;2.43;100.00;101457.72;5043979;28;20640;-69
2021/01/14 10:45:38;;;;;;;10.13;3.63;;;;;;;2.38;100.00;101464.34;5044180;28;20294;-70
2021/01/14 10:48:05;;;;;;;9.33;3.57;;;;;;;2.42;100.00;101461.97;5044812;28;20290;-69
2021/01/14 10:50:30;;;;;;;8.67;3.90;;;;;;;2.33;100.00;101474.47;5039403;28;20340;-69
2021/01/14 10:53:03;;;;;;;6.00;2.90;;;;;;;2.33;100.00;101472.75;5038936;28;20280;-69
2021/01/14 10:55:30;;;;;;;8.23;3.03;;;;;;;2.31;100.00;101474.41;5032889;28;20105;-68
2021/01/14 10:57:57;;;;;;;7.33;2.57;;;;;;;2.32;100.00;101481.31;5038712;28;20291;-68
2021/01/14 11:00:24;;;;;;;6.57;2.47;;;;;;;2.32;100.00;101483.91;5023974;28;20276;-69
2021/01/14 11:03:02;;;;;;;7.30;3.13;;;;;;;2.23;100.00;101487.72;5017673;28;20942;-69
2021/01/14 11:06:01;;;;;;;8.97;3.03;;;;;;;2.17;100.00;101480.56;5024010;28;20290;-69
2021/01/14 11:08:28;;;;;;;9.30;3.70;;;;;;;2.25;100.00;101484.41;5017428;28;20695;-69
2021/01/14 11:11:10;;;;;;;10.97;3.17;;;;;;;2.21;100.00;101485.09;5039581;28;20290;-67
2021/01/14 11:13:37;;;;;;;6.40;2.80;;;;;;;2.18;100.00;101484.94;5026002;28;20295;-70
2021/01/14 11:16:04;;;;;;;7.20;3.00;;;;;;;2.17;100.00;101482.25;5044276;28;20399;-68
2021/01/14 11:18:29;;;;;;;12.30;3.60;;;;;;;2.23;100.00;101480.88;5048452;28;20268;-69
2021/01/14 11:20:55;;;;;;;7.90;3.33;;;;;;;2.24;100.00;101479.19;5016719;28;20415;-68
2021/01/14 11:23:20;;;;;;;7.37;3.07;;;;;;;2.23;100.00;101483.47;5029471;28;20120;-69
2021/01/14 11:25:46;;;;;;;8.37;3.63;;;;;;;2.31;100.00;101481.25;5035298;28;20025;-69
2021/01/14 11:28:11;;;;;;;13.87;3.67;;;;;;;2.45;100.00;101493.09;5043586;28;20060;-69
2021/01/14 11:30:36;;;;;;;8.10;3.00;;;;;;;2.57;100.00;101485.94;5029426;28;20559;-70